sensor_id;sensor_type;location;lat;lon;timestamp;pressure;altitude;pressure_sealevel;temperature;humidity
46506;BME280;32220;49.808;9.968;2023-03-23T00:01:17;98184.34;;;15.71;48.61
46506;BME280;32220;49.808;9.968;2023-03-23T00:03:46;98186.88;;;15.73;48.36
46506;BME280;32220;49.808;9.968;2023-03-23T00:06:15;98188.56;;;15.74;48.07
46506;BME280;32220;49.808;9.968;2023-03-23T00:08:46;98184.19;;;15.73;48.56
46506;BME280;32220;49.808;9.968;2023-03-23T00:11:17;98182.94;;;15.77;48.36
46506;BME280;32220;49.808;9.968;2023-03-23T00:13:49;98186.31;;;15.79;48.81
46506;BME280;32220;49.808;9.968;2023-03-23T00:16:19;98182.78;;;15.78;48.75
46506;BME280;32220;49.808;9.968;2023-03-23T00:18:57;98179.28;;;15.78;48.64
46506;BME280;32220;49.808;9.968;2023-03-23T00:21:28;98177.31;;;15.80;48.73
46506;BME280;32220;49.808;9.968;2023-03-23T00:24:02;98165.78;;;15.79;48.99
46506;BME280;32220;49.808;9.968;2023-03-23T00:26:30;98154.59;;;15.66;48.98
46506;BME280;32220;49.808;9.968;2023-03-23T00:29:03;98164.94;;;15.79;49.19
46506;BME280;32220;49.808;9.968;2023-03-23T00:31:31;98147.72;;;15.64;48.97
46506;BME280;32220;49.808;9.968;2023-03-23T00:34:04;98166.91;;;15.77;49.07
46506;BME280;32220;49.808;9.968;2023-03-23T00:36:33;98169.59;;;15.77;49.04
46506;BME280;32220;49.808;9.968;2023-03-23T00:39:03;98165.94;;;15.78;49.25
46506;BME280;32220;49.808;9.968;2023-03-23T00:41:31;98166.22;;;15.75;49.61
46506;BME280;32220;49.808;9.968;2023-03-23T00:44:04;98157.38;;;15.74;49.49
46506;BME280;32220;49.808;9.968;2023-03-23T00:46:34;98152.16;;;15.73;49.36
46506;BME280;32220;49.808;9.968;2023-03-23T00:49:12;98150.34;;;15.73;49.86
46506;BME280;32220;49.808;9.968;2023-03-23T00:51:40;98153.16;;;15.72;49.61
46506;BME280;32220;49.808;9.968;2023-03-23T00:54:09;98145.28;;;15.70;49.74
46506;BME280;32220;49.808;9.968;2023-03-23T00:56:37;98142.47;;;15.72;49.99
46506;BME280;32220;49.808;9.968;2023-03-23T00:59:06;98144.47;;;15.70;49.71
46506;BME280;32220;49.808;9.968;2023-03-23T01:01:35;98148.13;;;15.69;50.02
46506;BME280;32220;49.808;9.968;2023-03-23T01:04:03;98155.44;;;15.67;49.62
46506;BME280;32220;49.808;9.968;2023-03-23T01:06:33;98141.09;;;15.68;49.73
46506;BME280;32220;49.808;9.968;2023-03-23T01:09:02;98135.34;;;15.63;49.90
46506;BME280;32220;49.808;9.968;2023-03-23T01:11:30;98128.31;;;15.62;49.78
46506;BME280;32220;49.808;9.968;2023-03-23T01:13:58;98089.19;;;15.33;49.71
46506;BME280;32220;49.808;9.968;2023-03-23T01:16:28;98137.75;;;15.66;49.97
46506;BME280;32220;49.808;9.968;2023-03-23T01:18:56;98131.13;;;15.60;49.73
46506;BME280;32220;49.808;9.968;2023-03-23T01:21:23;98121.44;;;15.50;49.93
46506;BME280;32220;49.808;9.968;2023-03-23T01:23:52;98133.66;;;15.62;49.69
46506;BME280;32220;49.808;9.968;2023-03-23T01:26:22;98125.66;;;15.62;49.62
46506;BME280;32220;49.808;9.968;2023-03-23T01:28:51;98123.28;;;15.59;49.56
46506;BME280;32220;49.808;9.968;2023-03-23T01:31:21;98122.28;;;15.60;49.69
46506;BME280;32220;49.808;9.968;2023-03-23T01:33:51;98109.91;;;15.59;49.67
46506;BME280;32220;49.808;9.968;2023-03-23T01:36:22;98108.28;;;15.58;49.84
46506;BME280;32220;49.808;9.968;2023-03-23T01:38:50;98105.59;;;15.58;49.84
46506;BME280;32220;49.808;9.968;2023-03-23T01:41:18;98103.06;;;15.56;49.72
46506;BME280;32220;49.808;9.968;2023-03-23T01:44:01;98103.22;;;15.55;49.93
46506;BME280;32220;49.808;9.968;2023-03-23T01:46:39;98098.97;;;15.52;49.66
46506;BME280;32220;49.808;9.968;2023-03-23T01:49:11;98093.50;;;15.54;49.59
46506;BME280;32220;49.808;9.968;2023-03-23T01:51:46;98092.78;;;15.52;49.50
46506;BME280;32220;49.808;9.968;2023-03-23T01:54:17;98088.44;;;15.51;49.31
46506;BME280;32220;49.808;9.968;2023-03-23T01:56:52;98072.44;;;15.51;49.58
46506;BME280;32220;49.808;9.968;2023-03-23T01:59:22;98081.56;;;15.48;49.29
46506;BME280;32220;49.808;9.968;2023-03-23T02:02:07;98069.38;;;15.36;49.75
46506;BME280;32220;49.808;9.968;2023-03-23T02:04:39;98074.28;;;15.40;49.97
46506;BME280;32220;49.808;9.968;2023-03-23T02:07:08;98078.38;;;15.35;49.74
46506;BME280;32220;49.808;9.968;2023-03-23T02:09:36;98081.50;;;15.30;49.94
46506;BME280;32220;49.808;9.968;2023-03-23T02:12:04;98083.44;;;15.28;49.95
46506;BME280;32220;49.808;9.968;2023-03-23T02:14:33;98069.00;;;15.21;50.06
46506;BME280;32220;49.808;9.968;2023-03-23T02:17:04;98079.94;;;15.28;50.18
46506;BME280;32220;49.808;9.968;2023-03-23T02:19:57;98077.41;;;15.26;49.90
46506;BME280;32220;49.808;9.968;2023-03-23T02:31:57;98066.31;;;15.21;50.27
46506;BME280;32220;49.808;9.968;2023-03-23T02:34:35;98076.31;;;15.19;50.06
46506;BME280;32220;49.808;9.968;2023-03-23T02:37:10;98066.91;;;15.15;50.03
46506;BME280;32220;49.808;9.968;2023-03-23T02:39:42;98072.94;;;15.17;50.20
46506;BME280;32220;49.808;9.968;2023-03-23T02:42:17;98060.75;;;15.15;50.13
46506;BME280;32220;49.808;9.968;2023-03-23T02:44:49;98054.84;;;15.11;49.93
46506;BME280;32220;49.808;9.968;2023-03-23T02:47:21;98060.03;;;15.13;50.06
46506;BME280;32220;49.808;9.968;2023-03-23T02:49:54;98062.72;;;15.13;49.85
46506;BME280;32220;49.808;9.968;2023-03-23T02:52:25;98059.19;;;15.12;49.55
46506;BME280;32220;49.808;9.968;2023-03-23T02:54:56;98060.03;;;15.13;49.93
46506;BME280;32220;49.808;9.968;2023-03-23T02:57:27;98062.97;;;15.09;49.82
46506;BME280;32220;49.808;9.968;2023-03-23T02:59:58;98059.78;;;15.06;49.75
46506;BME280;32220;49.808;9.968;2023-03-23T03:02:27;98055.84;;;15.00;49.71
46506;BME280;32220;49.808;9.968;2023-03-23T03:05:02;98028.66;;;14.87;49.71
46506;BME280;32220;49.808;9.968;2023-03-23T03:07:44;98049.13;;;14.96;49.68
46506;BME280;32220;49.808;9.968;2023-03-23T03:10:23;98038.19;;;14.90;49.73
46506;BME280;32220;49.808;9.968;2023-03-23T03:12:56;98058.25;;;14.94;50.10
46506;BME280;32220;49.808;9.968;2023-03-23T03:15:31;98007.66;;;14.65;50.41
46506;BME280;32220;49.808;9.968;2023-03-23T03:18:07;98052.22;;;14.92;50.41
46506;BME280;32220;49.808;9.968;2023-03-23T03:20:43;98053.91;;;14.93;50.08
46506;BME280;32220;49.808;9.968;2023-03-23T03:23:14;98061.31;;;14.99;49.93
46506;BME280;32220;49.808;9.968;2023-03-23T03:25:45;98067.66;;;15.07;49.75
46506;BME280;32220;49.808;9.968;2023-03-23T03:28:21;98063.97;;;15.08;49.83
46506;BME280;32220;49.808;9.968;2023-03-23T03:30:53;98042.25;;;15.03;49.80
46506;BME280;32220;49.808;9.968;2023-03-23T03:33:23;98050.22;;;15.13;49.74
46506;BME280;32220;49.808;9.968;2023-03-23T03:35:57;98052.75;;;15.15;49.69
46506;BME280;32220;49.808;9.968;2023-03-23T03:38:27;98046.56;;;15.14;49.54
46506;BME280;32220;49.808;9.968;2023-03-23T03:40:56;98048.53;;;15.12;49.72
46506;BME280;32220;49.808;9.968;2023-03-23T03:43:23;98046.84;;;15.11;49.58
46506;BME280;32220;49.808;9.968;2023-03-23T03:45:51;98048.13;;;15.07;49.54
46506;BME280;32220;49.808;9.968;2023-03-23T03:48:19;98045.28;;;15.08;49.55
46506;BME280;32220;49.808;9.968;2023-03-23T03:50:47;98042.09;;;15.05;49.91
46506;BME280;32220;49.808;9.968;2023-03-23T03:53:17;98035.38;;;15.01;50.03
46506;BME280;32220;49.808;9.968;2023-03-23T03:55:45;98036.34;;;15.00;50.33
46506;BME280;32220;49.808;9.968;2023-03-23T03:58:16;98040.97;;;14.98;50.07
46506;BME280;32220;49.808;9.968;2023-03-23T04:01:07;98039.00;;;15.00;50.13
46506;BME280;32220;49.808;9.968;2023-03-23T04:03:38;98050.53;;;15.00;49.94
46506;BME280;32220;49.808;9.968;2023-03-23T04:06:13;98044.91;;;15.03;50.23
46506;BME280;32220;49.808;9.968;2023-03-23T04:08:42;98051.09;;;15.04;49.93
46506;BME280;32220;49.808;9.968;2023-03-23T04:11:12;98039.56;;;15.03;50.07
46506;BME280;32220;49.808;9.968;2023-03-23T04:13:41;98035.66;;;14.98;49.99
46506;BME280;32220;49.808;9.968;2023-03-23T04:16:21;98045.03;;;15.02;49.94
46506;BME280;32220;49.808;9.968;2023-03-23T04:18:49;98050.53;;;15.00;49.92
46506;BME280;32220;49.808;9.968;2023-03-23T04:21:18;98048.84;;;14.99;50.28
46506;BME280;32220;49.808;9.968;2023-03-23T04:23:50;98043.63;;;14.98;50.37
46506;BME280;32220;49.808;9.968;2023-03-23T04:26:20;98043.78;;;14.96;50.13
46506;BME280;32220;49.808;9.968;2023-03-23T04:28:50;98025.28;;;14.85;50.45
46506;BME280;32220;49.808;9.968;2023-03-23T04:31:41;98042.25;;;14.94;50.23
46506;BME280;32220;49.808;9.968;2023-03-23T04:34:33;98051.25;;;14.93;50.19
46506;BME280;32220;49.808;9.968;2023-03-23T04:37:01;98033.72;;;14.81;50.38
46506;BME280;32220;49.808;9.968;2023-03-23T04:39:32;98055.88;;;14.91;51.05
46506;BME280;32220;49.808;9.968;2023-03-23T04:42:03;98045.22;;;14.91;50.94
46506;BME280;32220;49.808;9.968;2023-03-23T04:44:54;98040.16;;;14.88;51.14
46506;BME280;32220;49.808;9.968;2023-03-23T04:47:33;98045.75;;;14.85;50.88
46506;BME280;32220;49.808;9.968;2023-03-23T04:50:11;98038.75;;;14.84;51.05
46506;BME280;32220;49.808;9.968;2023-03-23T04:52:41;98048.59;;;14.83;50.86
46506;BME280;32220;49.808;9.968;2023-03-23T04:55:14;98041.84;;;14.79;51.33
46506;BME280;32220;49.808;9.968;2023-03-23T04:57:47;98042.97;;;14.77;51.27
46506;BME280;32220;49.808;9.968;2023-03-23T05:00:41;98028.09;;;14.74;51.44
46506;BME280;32220;49.808;9.968;2023-03-23T05:03:11;98035.56;;;14.70;50.97
46506;BME280;32220;49.808;9.968;2023-03-23T05:05:44;98036.25;;;14.72;50.81
46506;BME280;32220;49.808;9.968;2023-03-23T05:08:20;98037.22;;;14.71;50.92
46506;BME280;32220;49.808;9.968;2023-03-23T05:10:53;98040.72;;;14.72;51.34
46506;BME280;32220;49.808;9.968;2023-03-23T05:13:41;98047.88;;;14.71;51.33
46506;BME280;32220;49.808;9.968;2023-03-23T05:16:11;98052.53;;;14.69;51.34
46506;BME280;32220;49.808;9.968;2023-03-23T05:18:40;98057.03;;;14.69;51.16
46506;BME280;32220;49.808;9.968;2023-03-23T05:21:11;98053.66;;;14.67;51.37
46506;BME280;32220;49.808;9.968;2023-03-23T05:23:43;98053.09;;;14.63;51.79
46506;BME280;32220;49.808;9.968;2023-03-23T05:26:20;98045.38;;;14.60;51.75
46506;BME280;32220;49.808;9.968;2023-03-23T05:28:58;98044.38;;;14.52;52.60
46506;BME280;32220;49.808;9.968;2023-03-23T05:31:47;98043.81;;;14.48;53.18
46506;BME280;32220;49.808;9.968;2023-03-23T05:34:16;98043.69;;;14.40;53.69
46506;BME280;32220;49.808;9.968;2023-03-23T05:36:49;98036.38;;;14.32;54.04
46506;BME280;32220;49.808;9.968;2023-03-23T05:39:38;98046.03;;;14.24;54.40
46506;BME280;32220;49.808;9.968;2023-03-23T05:42:27;98036.19;;;14.15;55.38
46506;BME280;32220;49.808;9.968;2023-03-23T05:45:10;98035.75;;;14.10;55.94
46506;BME280;32220;49.808;9.968;2023-03-23T05:47:39;98042.38;;;14.06;57.12
46506;BME280;32220;49.808;9.968;2023-03-23T05:50:12;98017.69;;;13.94;62.06
46506;BME280;32220;49.808;9.968;2023-03-23T05:52:40;98031.94;;;13.83;61.23
46506;BME280;32220;49.808;9.968;2023-03-23T05:55:11;98042.03;;;13.80;60.40
46506;BME280;32220;49.808;9.968;2023-03-23T05:57:44;98053.50;;;13.80;60.33
46506;BME280;32220;49.808;9.968;2023-03-23T06:00:33;98048.19;;;13.80;61.97
46506;BME280;32220;49.808;9.968;2023-03-23T06:03:16;98051.25;;;13.76;61.02
46506;BME280;32220;49.808;9.968;2023-03-23T06:05:54;98048.44;;;13.77;61.29
46506;BME280;32220;49.808;9.968;2023-03-23T06:08:30;98060.34;;;13.73;61.72
46506;BME280;32220;49.808;9.968;2023-03-23T06:10:58;98061.47;;;13.71;62.06
46506;BME280;32220;49.808;9.968;2023-03-23T06:13:28;98063.16;;;13.72;62.05
46506;BME280;32220;49.808;9.968;2023-03-23T06:16:05;98072.78;;;13.73;63.00
46506;BME280;32220;49.808;9.968;2023-03-23T06:18:52;98050.69;;;13.72;64.17
46506;BME280;32220;49.808;9.968;2023-03-23T06:21:26;98058.22;;;13.67;63.59
46506;BME280;32220;49.808;9.968;2023-03-23T06:24:12;98064.53;;;13.66;63.59
46506;BME280;32220;49.808;9.968;2023-03-23T06:26:40;98063.69;;;13.65;63.65
46506;BME280;32220;49.808;9.968;2023-03-23T06:29:16;98053.59;;;13.59;63.82
46506;BME280;32220;49.808;9.968;2023-03-23T06:31:51;98064.13;;;13.71;63.85
46506;BME280;32220;49.808;9.968;2023-03-23T06:34:21;98068.59;;;13.70;64.95
46506;BME280;32220;49.808;9.968;2023-03-23T06:37:22;98035.50;;;13.63;65.73
46506;BME280;32220;49.808;9.968;2023-03-23T06:40:06;98049.84;;;13.72;67.76
46506;BME280;32220;49.808;9.968;2023-03-23T06:42:38;98061.03;;;13.75;66.94
46506;BME280;32220;49.808;9.968;2023-03-23T06:45:26;98057.66;;;13.73;67.33
46506;BME280;32220;49.808;9.968;2023-03-23T06:48:32;98081.97;;;13.89;66.66
46506;BME280;32220;49.808;9.968;2023-03-23T06:51:01;98091.94;;;13.97;66.18
46506;BME280;32220;49.808;9.968;2023-03-23T06:53:30;98089.00;;;14.00;66.95
46506;BME280;32220;49.808;9.968;2023-03-23T06:55:59;98101.34;;;14.01;66.29
46506;BME280;32220;49.808;9.968;2023-03-23T06:58:29;98104.84;;;14.01;66.27
46506;BME280;32220;49.808;9.968;2023-03-23T07:00:59;98109.31;;;14.01;65.71
46506;BME280;32220;49.808;9.968;2023-03-23T07:03:35;98115.94;;;14.07;65.67
46506;BME280;32220;49.808;9.968;2023-03-23T07:06:04;98107.66;;;14.10;65.04
46506;BME280;32220;49.808;9.968;2023-03-23T07:08:36;98116.66;;;14.18;64.99
46506;BME280;32220;49.808;9.968;2023-03-23T07:11:07;98091.13;;;14.06;64.70
46506;BME280;32220;49.808;9.968;2023-03-23T07:13:36;98094.53;;;14.18;64.07
46506;BME280;32220;49.808;9.968;2023-03-23T07:16:07;98107.84;;;14.37;63.82
46506;BME280;32220;49.808;9.968;2023-03-23T07:18:35;98119.00;;;14.52;63.00
46506;BME280;32220;49.808;9.968;2023-03-23T07:21:05;98116.19;;;14.53;62.10
46506;BME280;32220;49.808;9.968;2023-03-23T07:23:33;98134.44;;;14.67;61.89
46506;BME280;32220;49.808;9.968;2023-03-23T07:26:05;98122.38;;;14.63;62.13
46506;BME280;32220;49.808;9.968;2023-03-23T07:28:39;98146.22;;;14.74;60.52
46506;BME280;32220;49.808;9.968;2023-03-23T07:31:29;98137.81;;;14.79;60.59
46506;BME280;32220;49.808;9.968;2023-03-23T07:33:57;98149.31;;;14.89;59.73
46506;BME280;32220;49.808;9.968;2023-03-23T07:36:35;98147.38;;;14.82;58.89
46506;BME280;32220;49.808;9.968;2023-03-23T07:39:06;98146.53;;;14.91;58.86
46506;BME280;32220;49.808;9.968;2023-03-23T07:41:34;98149.31;;;14.99;58.18
46506;BME280;32220;49.808;9.968;2023-03-23T07:44:14;98134.44;;;15.06;58.01
46506;BME280;32220;49.808;9.968;2023-03-23T07:46:45;98147.06;;;15.14;57.58
46506;BME280;32220;49.808;9.968;2023-03-23T07:49:15;98138.19;;;15.23;57.21
46506;BME280;32220;49.808;9.968;2023-03-23T07:52:00;98155.72;;;15.35;57.10
46506;BME280;32220;49.808;9.968;2023-03-23T07:54:29;98145.91;;;15.45;57.44
46506;BME280;32220;49.808;9.968;2023-03-23T07:57:07;98163.84;;;15.53;56.71
46506;BME280;32220;49.808;9.968;2023-03-23T07:59:39;98163.84;;;15.53;56.79
46506;BME280;32220;49.808;9.968;2023-03-23T08:02:10;98164.44;;;15.66;57.26
46506;BME280;32220;49.808;9.968;2023-03-23T08:04:44;98165.84;;;15.70;56.48
46506;BME280;32220;49.808;9.968;2023-03-23T08:07:13;98162.16;;;15.71;56.70
46506;BME280;32220;49.808;9.968;2023-03-23T08:10:22;98166.34;;;15.73;57.34
46506;BME280;32220;49.808;9.968;2023-03-23T08:13:11;98152.94;;;15.56;59.01
46506;BME280;32220;49.808;9.968;2023-03-23T08:16:00;98157.28;;;15.37;60.66
46506;BME280;32220;49.808;9.968;2023-03-23T08:19:09;98158.84;;;15.21;61.59
46506;BME280;32220;49.808;9.968;2023-03-23T08:21:50;98161.25;;;15.04;63.03
46506;BME280;32220;49.808;9.968;2023-03-23T08:24:41;98157.88;;;14.93;63.99
46506;BME280;32220;49.808;9.968;2023-03-23T08:27:38;98165.88;;;14.93;63.85
46506;BME280;32220;49.808;9.968;2023-03-23T08:30:31;98169.66;;;14.81;64.24
46506;BME280;32220;49.808;9.968;2023-03-23T08:33:39;98157.59;;;14.77;65.43
46506;BME280;32220;49.808;9.968;2023-03-23T08:36:39;98156.88;;;14.55;66.79
46506;BME280;32220;49.808;9.968;2023-03-23T08:39:12;98174.53;;;14.56;67.41
46506;BME280;32220;49.808;9.968;2023-03-23T08:42:12;98172.41;;;14.50;68.79
46506;BME280;32220;49.808;9.968;2023-03-23T08:44:52;98162.09;;;14.36;69.22
46506;BME280;32220;49.808;9.968;2023-03-23T08:47:47;98177.16;;;14.47;69.57
46506;BME280;32220;49.808;9.968;2023-03-23T08:50:44;98168.34;;;14.46;71.01
46506;BME280;32220;49.808;9.968;2023-03-23T08:53:27;98178.84;;;14.48;70.67
46506;BME280;32220;49.808;9.968;2023-03-23T08:56:22;98178.44;;;14.52;70.79
46506;BME280;32220;49.808;9.968;2023-03-23T08:59:04;98177.91;;;14.58;70.17
46506;BME280;32220;49.808;9.968;2023-03-23T09:01:54;98171.75;;;14.67;70.48
46506;BME280;32220;49.808;9.968;2023-03-23T09:04:42;98175.41;;;14.76;69.92
46506;BME280;32220;49.808;9.968;2023-03-23T09:07:26;98171.22;;;14.93;69.12
46506;BME280;32220;49.808;9.968;2023-03-23T09:09:55;98183.44;;;15.05;68.43
46506;BME280;32220;49.808;9.968;2023-03-23T09:12:23;98186.66;;;15.18;67.25
46506;BME280;32220;49.808;9.968;2023-03-23T09:14:50;98184.69;;;15.20;66.07
46506;BME280;32220;49.808;9.968;2023-03-23T09:17:18;98195.88;;;15.33;65.39
46506;BME280;32220;49.808;9.968;2023-03-23T09:19:46;98204.19;;;15.30;65.06
46506;BME280;32220;49.808;9.968;2023-03-23T09:22:14;98214.44;;;15.35;65.20
46506;BME280;32220;49.808;9.968;2023-03-23T09:24:45;98212.31;;;15.38;64.80
46506;BME280;32220;49.808;9.968;2023-03-23T09:27:14;98187.50;;;15.28;64.68
46506;BME280;32220;49.808;9.968;2023-03-23T09:29:43;98211.59;;;15.46;64.21
46506;BME280;32220;49.808;9.968;2023-03-23T09:32:12;98219.91;;;15.53;63.99
46506;BME280;32220;49.808;9.968;2023-03-23T09:34:41;98220.31;;;15.77;64.11
46506;BME280;32220;49.808;9.968;2023-03-23T09:37:09;98243.31;;;15.97;62.32
46506;BME280;32220;49.808;9.968;2023-03-23T09:39:39;98238.25;;;16.04;62.24
46506;BME280;32220;49.808;9.968;2023-03-23T09:45:09;98252.19;;;16.35;61.41
46506;BME280;32220;49.808;9.968;2023-03-23T09:47:42;98254.38;;;16.49;61.14
46506;BME280;32220;49.808;9.968;2023-03-23T09:50:15;98259.81;;;16.57;61.05
46506;BME280;32220;49.808;9.968;2023-03-23T09:52:50;98253.81;;;16.55;60.25
46506;BME280;32220;49.808;9.968;2023-03-23T09:55:21;98264.78;;;16.52;60.79
46506;BME280;32220;49.808;9.968;2023-03-23T09:57:53;98257.25;;;16.38;60.65
46506;BME280;32220;49.808;9.968;2023-03-23T10:00:29;98274.25;;;16.37;60.81
46506;BME280;32220;49.808;9.968;2023-03-23T10:03:02;98271.59;;;16.37;61.54
46506;BME280;32220;49.808;9.968;2023-03-23T10:05:34;98267.38;;;16.34;61.39
46506;BME280;32220;49.808;9.968;2023-03-23T10:08:10;98272.38;;;16.47;60.52
46506;BME280;32220;49.808;9.968;2023-03-23T10:10:58;98258.72;;;16.50;60.21
46506;BME280;32220;49.808;9.968;2023-03-23T10:13:40;98275.16;;;16.65;60.22
46506;BME280;32220;49.808;9.968;2023-03-23T10:16:28;98273.72;;;16.70;60.04
46506;BME280;32220;49.808;9.968;2023-03-23T10:19:03;98287.78;;;16.72;59.60
46506;BME280;32220;49.808;9.968;2023-03-23T10:21:38;98277.84;;;16.65;59.11
46506;BME280;32220;49.808;9.968;2023-03-23T10:24:10;98292.44;;;16.70;59.21
46506;BME280;32220;49.808;9.968;2023-03-23T10:26:47;98285.25;;;16.71;59.71
46506;BME280;32220;49.808;9.968;2023-03-23T10:29:18;98277.94;;;16.73;59.27
46506;BME280;32220;49.808;9.968;2023-03-23T10:31:52;98276.88;;;16.83;59.50
46506;BME280;32220;49.808;9.968;2023-03-23T10:34:27;98274.41;;;17.00;58.72
46506;BME280;32220;49.808;9.968;2023-03-23T10:37:01;98253.78;;;17.10;58.24
46506;BME280;32220;49.808;9.968;2023-03-23T10:39:32;98271.81;;;17.43;58.33
46506;BME280;32220;49.808;9.968;2023-03-23T10:42:05;98276.91;;;17.64;57.21
46506;BME280;32220;49.808;9.968;2023-03-23T10:44:34;98264.47;;;17.81;56.67
46506;BME280;32220;49.808;9.968;2023-03-23T10:47:06;98270.69;;;18.07;56.51
46506;BME280;32220;49.808;9.968;2023-03-23T10:49:37;98281.94;;;18.37;55.27
46506;BME280;32220;49.808;9.968;2023-03-23T10:52:13;98276.63;;;19.21;54.06
46506;BME280;32220;49.808;9.968;2023-03-23T10:54:51;98293.00;;;20.08;50.73
46506;BME280;32220;49.808;9.968;2023-03-23T10:57:22;98303.41;;;20.91;48.65
46506;BME280;32220;49.808;9.968;2023-03-23T10:59:50;98321.34;;;21.46;46.09
46506;BME280;32220;49.808;9.968;2023-03-23T11:02:23;98319.41;;;22.08;45.36
46506;BME280;32220;49.808;9.968;2023-03-23T11:04:58;98308.19;;;21.97;45.67
46506;BME280;32220;49.808;9.968;2023-03-23T11:07:29;98305.16;;;21.92;44.96
46506;BME280;32220;49.808;9.968;2023-03-23T11:10:05;98308.69;;;22.00;44.87
46506;BME280;32220;49.808;9.968;2023-03-23T11:12:35;98332.97;;;22.15;44.72
46506;BME280;32220;49.808;9.968;2023-03-23T11:15:16;98335.16;;;22.19;43.28
46506;BME280;32220;49.808;9.968;2023-03-23T11:17:57;98337.09;;;22.11;43.90
46506;BME280;32220;49.808;9.968;2023-03-23T11:20:26;98326.53;;;22.01;44.45
46506;BME280;32220;49.808;9.968;2023-03-23T11:22:55;98325.91;;;21.91;43.62
46506;BME280;32220;49.808;9.968;2023-03-23T11:25:23;98334.13;;;21.98;43.71
46506;BME280;32220;49.808;9.968;2023-03-23T11:27:57;98328.53;;;21.76;43.92
46506;BME280;32220;49.808;9.968;2023-03-23T11:30:26;98328.06;;;21.50;43.88
46506;BME280;32220;49.808;9.968;2023-03-23T11:33:00;98332.63;;;21.10;44.15
46506;BME280;32220;49.808;9.968;2023-03-23T11:35:29;98338.97;;;21.17;44.44
46506;BME280;32220;49.808;9.968;2023-03-23T11:37:58;98334.59;;;21.25;44.39
46506;BME280;32220;49.808;9.968;2023-03-23T11:40:27;98327.81;;;21.29;44.92
46506;BME280;32220;49.808;9.968;2023-03-23T11:43:00;98321.69;;;21.04;44.25
46506;BME280;32220;49.808;9.968;2023-03-23T11:45:33;98301.31;;;20.70;44.57
46506;BME280;32220;49.808;9.968;2023-03-23T11:48:13;98332.31;;;20.50;45.23
46506;BME280;32220;49.808;9.968;2023-03-23T11:50:51;98329.97;;;20.15;45.92
46506;BME280;32220;49.808;9.968;2023-03-23T11:53:26;98322.91;;;19.89;46.31
46506;BME280;32220;49.808;9.968;2023-03-23T11:56:05;98309.63;;;19.80;46.56
46506;BME280;32220;49.808;9.968;2023-03-23T11:58:34;98305.59;;;19.84;47.42
46506;BME280;32220;49.808;9.968;2023-03-23T12:01:05;98318.69;;;19.95;47.43
46506;BME280;32220;49.808;9.968;2023-03-23T12:04:01;98286.44;;;19.79;47.64
46506;BME280;32220;49.808;9.968;2023-03-23T12:06:38;98307.78;;;19.64;48.55
46506;BME280;32220;49.808;9.968;2023-03-23T12:09:23;98295.13;;;19.48;48.97
46506;BME280;32220;49.808;9.968;2023-03-23T12:12:04;98303.84;;;19.34;48.86
46506;BME280;32220;49.808;9.968;2023-03-23T12:14:40;98305.59;;;19.09;49.38
46506;BME280;32220;49.808;9.968;2023-03-23T12:17:20;98286.41;;;18.88;49.82
46506;BME280;32220;49.808;9.968;2023-03-23T12:20:01;98288.22;;;18.79;50.42
46506;BME280;32220;49.808;9.968;2023-03-23T12:22:47;98282.13;;;18.61;51.05
46506;BME280;32220;49.808;9.968;2023-03-23T12:25:36;98299.44;;;18.49;51.43
46506;BME280;32220;49.808;9.968;2023-03-23T12:28:14;98284.06;;;18.25;52.07
46506;BME280;32220;49.808;9.968;2023-03-23T12:30:49;98279.38;;;18.01;52.79
46506;BME280;32220;49.808;9.968;2023-03-23T12:33:28;98279.31;;;17.93;53.19
46506;BME280;32220;49.808;9.968;2023-03-23T12:36:10;98283.00;;;17.92;53.47
46506;BME280;32220;49.808;9.968;2023-03-23T12:38:51;98255.34;;;17.66;54.36
46506;BME280;32220;49.808;9.968;2023-03-23T12:41:27;98264.06;;;17.68;54.55
46506;BME280;32220;49.808;9.968;2023-03-23T12:43:59;98252.91;;;17.80;55.57
46506;BME280;32220;49.808;9.968;2023-03-23T12:49:24;98244.03;;;18.91;52.88
46506;BME280;32220;49.808;9.968;2023-03-23T12:52:00;98256.56;;;19.57;51.95
46506;BME280;32220;49.808;9.968;2023-03-23T12:54:33;98264.28;;;19.93;50.94
46506;BME280;32220;49.808;9.968;2023-03-23T12:57:08;98254.31;;;20.18;50.32
46506;BME280;32220;49.808;9.968;2023-03-23T12:59:42;98281.03;;;20.43;49.18
46506;BME280;32220;49.808;9.968;2023-03-23T13:02:17;98216.22;;;20.14;49.21
46506;BME280;32220;49.808;9.968;2023-03-23T13:04:49;98243.72;;;20.40;48.84
46506;BME280;32220;49.808;9.968;2023-03-23T13:07:30;98247.25;;;20.41;48.40
46506;BME280;32220;49.808;9.968;2023-03-23T13:10:03;98240.72;;;20.35;48.81
46506;BME280;32220;49.808;9.968;2023-03-23T13:12:33;98233.00;;;20.24;48.96
46506;BME280;32220;49.808;9.968;2023-03-23T13:15:17;98241.53;;;20.28;49.70
46506;BME280;32220;49.808;9.968;2023-03-23T13:17:53;98230.94;;;20.34;49.99
46506;BME280;32220;49.808;9.968;2023-03-23T13:20:43;98209.59;;;20.33;49.78
46506;BME280;32220;49.808;9.968;2023-03-23T13:23:19;98222.59;;;20.68;49.43
46506;BME280;32220;49.808;9.968;2023-03-23T13:25:51;98211.13;;;21.05;48.78
46506;BME280;32220;49.808;9.968;2023-03-23T13:28:24;98221.09;;;21.73;47.45
46506;BME280;32220;49.808;9.968;2023-03-23T13:31:00;98243.00;;;22.45;45.33
46506;BME280;32220;49.808;9.968;2023-03-23T13:33:30;98225.00;;;22.38;45.01
46506;BME280;32220;49.808;9.968;2023-03-23T13:36:04;98222.13;;;22.39;45.18
46506;BME280;32220;49.808;9.968;2023-03-23T13:38:36;98221.59;;;22.58;44.56
46506;BME280;32220;49.808;9.968;2023-03-23T13:41:08;98199.16;;;22.58;44.49
46506;BME280;32220;49.808;9.968;2023-03-23T13:43:39;98232.53;;;23.01;44.24
46506;BME280;32220;49.808;9.968;2023-03-23T13:46:26;98232.44;;;23.31;44.01
46506;BME280;32220;49.808;9.968;2023-03-23T13:49:20;98232.97;;;23.62;42.29
46506;BME280;32220;49.808;9.968;2023-03-23T13:52:00;98237.38;;;23.63;41.90
46506;BME280;32220;49.808;9.968;2023-03-23T13:54:40;98240.22;;;23.55;42.19
46506;BME280;32220;49.808;9.968;2023-03-23T13:57:49;98237.38;;;23.27;41.91